sensor_id;sensor_type;location;lat;lon;timestamp;P1;durP1;ratioP1;P2;durP2;ratioP2
70247;SDS011;57641;51.416;5.506;2022-12-05T00:00:20;39.50;;;16.95;;
70247;SDS011;57641;51.416;5.506;2022-12-05T00:02:46;49.13;;;18.88;;
70247;SDS011;57641;51.416;5.506;2022-12-05T00:05:11;44.67;;;17.08;;
70247;SDS011;57641;51.416;5.506;2022-12-05T00:07:37;43.15;;;17.85;;
70247;SDS011;57641;51.416;5.506;2022-12-05T00:10:04;40.60;;;18.27;;
70247;SDS011;57641;51.416;5.506;2022-12-05T00:12:30;47.63;;;18.52;;
70247;SDS011;57641;51.416;5.506;2022-12-05T00:14:57;45.38;;;18.48;;
70247;SDS011;57641;51.416;5.506;2022-12-05T00:17:22;43.10;;;18.45;;
70247;SDS011;57641;51.416;5.506;2022-12-05T00:19:47;46.50;;;19.67;;
70247;SDS011;57641;51.416;5.506;2022-12-05T00:22:13;43.60;;;17.75;;
70247;SDS011;57641;51.416;5.506;2022-12-05T00:24:39;42.40;;;19.25;;
70247;SDS011;57641;51.416;5.506;2022-12-05T00:27:05;44.85;;;18.75;;
70247;SDS011;57641;51.416;5.506;2022-12-05T00:29:33;42.20;;;17.42;;
70247;SDS011;57641;51.416;5.506;2022-12-05T00:31:59;48.88;;;18.70;;
70247;SDS011;57641;51.416;5.506;2022-12-05T00:34:25;41.83;;;17.92;;
70247;SDS011;57641;51.416;5.506;2022-12-05T00:36:51;48.47;;;19.10;;
70247;SDS011;57641;51.416;5.506;2022-12-05T00:39:16;47.05;;;18.95;;
70247;SDS011;57641;51.416;5.506;2022-12-05T00:41:42;43.90;;;18.92;;
70247;SDS011;57641;51.416;5.506;2022-12-05T00:44:08;49.08;;;19.58;;
70247;SDS011;57641;51.416;5.506;2022-12-05T00:46:36;46.50;;;19.42;;
70247;SDS011;57641;51.416;5.506;2022-12-05T00:49:02;47.05;;;20.08;;
70247;SDS011;57641;51.416;5.506;2022-12-05T00:51:31;56.47;;;21.00;;
70247;SDS011;57641;51.416;5.506;2022-12-05T00:54:06;56.53;;;21.40;;
70247;SDS011;57641;51.416;5.506;2022-12-05T00:56:37;53.38;;;19.88;;
70247;SDS011;57641;51.416;5.506;2022-12-05T00:59:04;52.33;;;20.85;;
70247;SDS011;57641;51.416;5.506;2022-12-05T01:01:38;51.63;;;20.58;;
70247;SDS011;57641;51.416;5.506;2022-12-05T01:04:15;46.92;;;19.73;;
70247;SDS011;57641;51.416;5.506;2022-12-05T01:06:50;49.08;;;20.15;;
70247;SDS011;57641;51.416;5.506;2022-12-05T01:09:20;46.17;;;19.15;;
70247;SDS011;57641;51.416;5.506;2022-12-05T01:11:46;51.58;;;19.65;;
70247;SDS011;57641;51.416;5.506;2022-12-05T01:14:13;48.45;;;20.05;;
70247;SDS011;57641;51.416;5.506;2022-12-05T01:16:42;53.22;;;20.95;;
70247;SDS011;57641;51.416;5.506;2022-12-05T01:19:25;57.03;;;21.55;;
70247;SDS011;57641;51.416;5.506;2022-12-05T01:21:53;50.65;;;20.00;;
70247;SDS011;57641;51.416;5.506;2022-12-05T01:24:20;51.50;;;20.42;;
70247;SDS011;57641;51.416;5.506;2022-12-05T01:26:46;55.13;;;20.13;;
70247;SDS011;57641;51.416;5.506;2022-12-05T01:29:13;48.90;;;19.25;;
70247;SDS011;57641;51.416;5.506;2022-12-05T01:31:41;51.42;;;21.55;;
70247;SDS011;57641;51.416;5.506;2022-12-05T01:34:09;53.75;;;20.27;;
70247;SDS011;57641;51.416;5.506;2022-12-05T01:36:43;53.50;;;20.80;;
70247;SDS011;57641;51.416;5.506;2022-12-05T01:39:10;56.80;;;21.70;;
70247;SDS011;57641;51.416;5.506;2022-12-05T01:41:38;49.97;;;20.50;;
70247;SDS011;57641;51.416;5.506;2022-12-05T01:46:52;47.78;;;19.35;;
70247;SDS011;57641;51.416;5.506;2022-12-05T01:49:27;50.88;;;20.45;;
70247;SDS011;57641;51.416;5.506;2022-12-05T01:51:59;55.60;;;20.83;;
70247;SDS011;57641;51.416;5.506;2022-12-05T01:54:42;53.10;;;21.27;;
70247;SDS011;57641;51.416;5.506;2022-12-05T01:57:10;57.00;;;22.15;;
70247;SDS011;57641;51.416;5.506;2022-12-05T01:59:40;50.72;;;20.83;;
70247;SDS011;57641;51.416;5.506;2022-12-05T02:02:10;51.88;;;20.83;;
70247;SDS011;57641;51.416;5.506;2022-12-05T02:05:41;44.80;;;18.25;;
70247;SDS011;57641;51.416;5.506;2022-12-05T02:07:47;53.50;;;20.45;;
70247;SDS011;57641;51.416;5.506;2022-12-05T02:10:16;49.53;;;19.85;;
70247;SDS011;57641;51.416;5.506;2022-12-05T02:12:42;51.67;;;20.50;;
70247;SDS011;57641;51.416;5.506;2022-12-05T02:23:00;59.83;;;21.77;;
70247;SDS011;57641;51.416;5.506;2022-12-05T02:31:40;42.97;;;18.98;;
70247;SDS011;57641;51.416;5.506;2022-12-05T02:34:27;55.13;;;21.92;;
70247;SDS011;57641;51.416;5.506;2022-12-05T02:37:13;50.20;;;19.40;;
70247;SDS011;57641;51.416;5.506;2022-12-05T02:39:56;56.45;;;22.35;;
70247;SDS011;57641;51.416;5.506;2022-12-05T02:43:15;52.58;;;20.48;;
70247;SDS011;57641;51.416;5.506;2022-12-05T02:45:37;51.45;;;19.70;;
70247;SDS011;57641;51.416;5.506;2022-12-05T02:48:08;48.28;;;20.85;;
70247;SDS011;57641;51.416;5.506;2022-12-05T02:50:38;57.47;;;21.92;;
70247;SDS011;57641;51.416;5.506;2022-12-05T02:53:08;50.70;;;20.75;;
70247;SDS011;57641;51.416;5.506;2022-12-05T02:55:37;50.28;;;20.05;;
70247;SDS011;57641;51.416;5.506;2022-12-05T02:58:07;56.78;;;23.05;;
70247;SDS011;57641;51.416;5.506;2022-12-05T03:00:37;59.03;;;23.15;;
70247;SDS011;57641;51.416;5.506;2022-12-05T03:03:14;49.25;;;19.83;;
70247;SDS011;57641;51.416;5.506;2022-12-05T03:08:20;54.58;;;21.73;;
70247;SDS011;57641;51.416;5.506;2022-12-05T03:10:49;53.45;;;21.85;;
70247;SDS011;57641;51.416;5.506;2022-12-05T03:13:24;58.72;;;21.58;;
70247;SDS011;57641;51.416;5.506;2022-12-05T03:18:25;51.70;;;21.10;;
70247;SDS011;57641;51.416;5.506;2022-12-05T03:21:02;51.42;;;21.85;;
70247;SDS011;57641;51.416;5.506;2022-12-05T03:23:34;65.10;;;24.10;;
70247;SDS011;57641;51.416;5.506;2022-12-05T03:28:53;50.42;;;20.38;;
70247;SDS011;57641;51.416;5.506;2022-12-05T03:31:22;55.22;;;21.35;;
70247;SDS011;57641;51.416;5.506;2022-12-05T03:33:56;55.25;;;22.10;;
70247;SDS011;57641;51.416;5.506;2022-12-05T03:36:28;57.13;;;20.60;;
70247;SDS011;57641;51.416;5.506;2022-12-05T03:41:47;53.65;;;21.40;;
70247;SDS011;57641;51.416;5.506;2022-12-05T03:44:26;52.42;;;21.13;;
70247;SDS011;57641;51.416;5.506;2022-12-05T03:47:13;50.78;;;20.45;;
70247;SDS011;57641;51.416;5.506;2022-12-05T03:49:49;51.83;;;20.90;;
70247;SDS011;57641;51.416;5.506;2022-12-05T03:52:21;51.17;;;21.95;;
70247;SDS011;57641;51.416;5.506;2022-12-05T03:54:52;56.50;;;21.80;;
70247;SDS011;57641;51.416;5.506;2022-12-05T03:57:23;57.20;;;21.95;;
70247;SDS011;57641;51.416;5.506;2022-12-05T04:05:43;54.72;;;21.60;;
70247;SDS011;57641;51.416;5.506;2022-12-05T04:08:17;53.00;;;19.98;;
70247;SDS011;57641;51.416;5.506;2022-12-05T04:10:50;51.75;;;20.30;;
70247;SDS011;57641;51.416;5.506;2022-12-05T04:13:22;51.47;;;20.17;;
70247;SDS011;57641;51.416;5.506;2022-12-05T04:15:55;55.38;;;21.38;;
70247;SDS011;57641;51.416;5.506;2022-12-05T04:18:49;56.40;;;21.35;;
70247;SDS011;57641;51.416;5.506;2022-12-05T04:21:40;51.42;;;20.60;;
70247;SDS011;57641;51.416;5.506;2022-12-05T04:24:22;52.63;;;20.35;;
70247;SDS011;57641;51.416;5.506;2022-12-05T04:32:39;48.70;;;19.55;;
70247;SDS011;57641;51.416;5.506;2022-12-05T04:35:21;54.72;;;20.75;;
70247;SDS011;57641;51.416;5.506;2022-12-05T04:37:50;44.28;;;18.13;;
70247;SDS011;57641;51.416;5.506;2022-12-05T04:40:26;51.67;;;20.48;;
70247;SDS011;57641;51.416;5.506;2022-12-05T04:42:57;51.15;;;21.17;;
70247;SDS011;57641;51.416;5.506;2022-12-05T04:45:25;52.13;;;20.55;;
70247;SDS011;57641;51.416;5.506;2022-12-05T04:47:56;54.03;;;20.10;;
70247;SDS011;57641;51.416;5.506;2022-12-05T04:50:26;55.70;;;20.85;;
70247;SDS011;57641;51.416;5.506;2022-12-05T04:52:56;53.95;;;20.80;;
70247;SDS011;57641;51.416;5.506;2022-12-05T04:55:24;54.03;;;20.20;;
70247;SDS011;57641;51.416;5.506;2022-12-05T05:05:54;50.03;;;19.33;;
70247;SDS011;57641;51.416;5.506;2022-12-05T05:08:24;51.03;;;20.30;;
70247;SDS011;57641;51.416;5.506;2022-12-05T05:11:09;51.13;;;19.53;;
70247;SDS011;57641;51.416;5.506;2022-12-05T05:13:45;45.58;;;18.40;;
70247;SDS011;57641;51.416;5.506;2022-12-05T05:16:18;46.85;;;18.02;;
70247;SDS011;57641;51.416;5.506;2022-12-05T05:18:49;50.47;;;19.45;;
70247;SDS011;57641;51.416;5.506;2022-12-05T05:21:38;50.70;;;19.42;;
70247;SDS011;57641;51.416;5.506;2022-12-05T05:24:03;44.90;;;18.42;;
70247;SDS011;57641;51.416;5.506;2022-12-05T05:26:30;47.20;;;19.58;;
70247;SDS011;57641;51.416;5.506;2022-12-05T05:28:58;50.20;;;19.00;;
70247;SDS011;57641;51.416;5.506;2022-12-05T05:31:23;42.95;;;19.23;;
70247;SDS011;57641;51.416;5.506;2022-12-05T05:33:50;44.67;;;20.13;;
70247;SDS011;57641;51.416;5.506;2022-12-05T05:36:17;46.15;;;18.35;;
70247;SDS011;57641;51.416;5.506;2022-12-05T05:38:45;48.13;;;18.55;;
70247;SDS011;57641;51.416;5.506;2022-12-05T05:41:16;46.47;;;18.30;;
70247;SDS011;57641;51.416;5.506;2022-12-05T05:43:45;48.80;;;18.92;;
70247;SDS011;57641;51.416;5.506;2022-12-05T05:46:12;43.88;;;18.55;;
70247;SDS011;57641;51.416;5.506;2022-12-05T05:48:38;48.67;;;19.17;;
70247;SDS011;57641;51.416;5.506;2022-12-05T05:51:05;43.45;;;18.10;;
70247;SDS011;57641;51.416;5.506;2022-12-05T05:53:32;49.78;;;19.63;;
70247;SDS011;57641;51.416;5.506;2022-12-05T05:56:06;45.45;;;19.48;;
70247;SDS011;57641;51.416;5.506;2022-12-05T05:58:37;44.72;;;19.67;;
70247;SDS011;57641;51.416;5.506;2022-12-05T06:01:07;56.35;;;21.27;;
70247;SDS011;57641;51.416;5.506;2022-12-05T06:03:35;47.15;;;18.92;;
70247;SDS011;57641;51.416;5.506;2022-12-05T06:06:03;44.80;;;17.88;;
70247;SDS011;57641;51.416;5.506;2022-12-05T06:08:31;45.53;;;18.73;;
70247;SDS011;57641;51.416;5.506;2022-12-05T06:10:58;51.90;;;19.17;;
70247;SDS011;57641;51.416;5.506;2022-12-05T06:13:28;43.67;;;18.98;;
70247;SDS011;57641;51.416;5.506;2022-12-05T06:15:54;46.10;;;20.10;;
70247;SDS011;57641;51.416;5.506;2022-12-05T06:18:20;48.05;;;20.75;;
70247;SDS011;57641;51.416;5.506;2022-12-05T06:20:52;47.90;;;18.88;;
70247;SDS011;57641;51.416;5.506;2022-12-05T06:23:18;48.08;;;18.20;;
70247;SDS011;57641;51.416;5.506;2022-12-05T06:25:47;47.38;;;19.23;;
70247;SDS011;57641;51.416;5.506;2022-12-05T06:28:13;47.13;;;19.90;;
70247;SDS011;57641;51.416;5.506;2022-12-05T06:30:39;48.90;;;19.15;;
70247;SDS011;57641;51.416;5.506;2022-12-05T06:33:04;49.20;;;18.92;;
70247;SDS011;57641;51.416;5.506;2022-12-05T06:35:30;45.20;;;19.15;;
70247;SDS011;57641;51.416;5.506;2022-12-05T06:37:56;45.20;;;18.67;;
70247;SDS011;57641;51.416;5.506;2022-12-05T06:40:21;47.70;;;20.13;;
70247;SDS011;57641;51.416;5.506;2022-12-05T06:42:46;48.83;;;19.42;;
70247;SDS011;57641;51.416;5.506;2022-12-05T06:45:13;45.95;;;19.75;;
70247;SDS011;57641;51.416;5.506;2022-12-05T06:47:39;53.03;;;21.20;;
70247;SDS011;57641;51.416;5.506;2022-12-05T06:50:06;49.17;;;20.70;;
70247;SDS011;57641;51.416;5.506;2022-12-05T06:52:32;45.35;;;20.08;;
70247;SDS011;57641;51.416;5.506;2022-12-05T06:54:58;48.38;;;17.75;;
70247;SDS011;57641;51.416;5.506;2022-12-05T06:57:24;47.30;;;19.55;;
70247;SDS011;57641;51.416;5.506;2022-12-05T06:59:55;45.67;;;19.55;;
70247;SDS011;57641;51.416;5.506;2022-12-05T07:02:51;48.65;;;19.38;;
70247;SDS011;57641;51.416;5.506;2022-12-05T07:05:21;46.17;;;19.35;;
70247;SDS011;57641;51.416;5.506;2022-12-05T07:07:46;42.55;;;18.65;;
70247;SDS011;57641;51.416;5.506;2022-12-05T07:10:12;51.03;;;20.50;;
70247;SDS011;57641;51.416;5.506;2022-12-05T07:12:43;47.22;;;19.23;;
70247;SDS011;57641;51.416;5.506;2022-12-05T07:15:09;45.38;;;18.73;;
70247;SDS011;57641;51.416;5.506;2022-12-05T07:17:35;47.47;;;19.83;;
70247;SDS011;57641;51.416;5.506;2022-12-05T07:20:03;48.28;;;19.00;;
70247;SDS011;57641;51.416;5.506;2022-12-05T07:22:35;49.40;;;19.35;;
70247;SDS011;57641;51.416;5.506;2022-12-05T07:25:04;44.47;;;18.58;;
70247;SDS011;57641;51.416;5.506;2022-12-05T07:27:30;47.55;;;18.50;;
70247;SDS011;57641;51.416;5.506;2022-12-05T07:29:56;44.15;;;18.08;;
70247;SDS011;57641;51.416;5.506;2022-12-05T07:32:21;46.15;;;17.77;;
70247;SDS011;57641;51.416;5.506;2022-12-05T07:34:47;45.28;;;20.30;;
70247;SDS011;57641;51.416;5.506;2022-12-05T07:37:12;51.97;;;18.02;;
70247;SDS011;57641;51.416;5.506;2022-12-05T07:39:38;45.60;;;20.42;;
70247;SDS011;57641;51.416;5.506;2022-12-05T07:42:03;51.08;;;20.00;;
70247;SDS011;57641;51.416;5.506;2022-12-05T07:44:30;48.28;;;19.05;;
70247;SDS011;57641;51.416;5.506;2022-12-05T07:46:56;50.30;;;19.40;;
70247;SDS011;57641;51.416;5.506;2022-12-05T07:49:22;44.72;;;17.52;;
70247;SDS011;57641;51.416;5.506;2022-12-05T07:51:48;44.95;;;19.52;;
70247;SDS011;57641;51.416;5.506;2022-12-05T07:54:14;44.38;;;18.48;;
70247;SDS011;57641;51.416;5.506;2022-12-05T07:56:39;46.92;;;19.73;;
70247;SDS011;57641;51.416;5.506;2022-12-05T07:59:04;40.50;;;17.60;;
70247;SDS011;57641;51.416;5.506;2022-12-05T08:01:30;44.53;;;18.23;;
70247;SDS011;57641;51.416;5.506;2022-12-05T08:03:56;41.20;;;17.88;;
70247;SDS011;57641;51.416;5.506;2022-12-05T08:06:25;43.15;;;18.20;;
70247;SDS011;57641;51.416;5.506;2022-12-05T08:08:52;41.08;;;17.90;;
70247;SDS011;57641;51.416;5.506;2022-12-05T08:11:38;39.53;;;17.52;;
70247;SDS011;57641;51.416;5.506;2022-12-05T08:14:04;41.00;;;17.98;;
70247;SDS011;57641;51.416;5.506;2022-12-05T08:16:31;37.17;;;17.08;;
70247;SDS011;57641;51.416;5.506;2022-12-05T08:18:58;38.88;;;17.65;;
70247;SDS011;57641;51.416;5.506;2022-12-05T08:21:25;36.20;;;16.75;;
70247;SDS011;57641;51.416;5.506;2022-12-05T08:23:51;35.92;;;17.15;;
70247;SDS011;57641;51.416;5.506;2022-12-05T08:26:19;37.45;;;15.98;;
70247;SDS011;57641;51.416;5.506;2022-12-05T08:28:52;39.80;;;16.92;;
70247;SDS011;57641;51.416;5.506;2022-12-05T08:31:21;36.67;;;16.60;;
70247;SDS011;57641;51.416;5.506;2022-12-05T08:33:48;39.78;;;17.85;;
70247;SDS011;57641;51.416;5.506;2022-12-05T08:36:16;39.30;;;16.08;;
70247;SDS011;57641;51.416;5.506;2022-12-05T08:38:57;37.58;;;15.98;;
70247;SDS011;57641;51.416;5.506;2022-12-05T08:41:27;38.97;;;16.88;;
70247;SDS011;57641;51.416;5.506;2022-12-05T08:43:55;35.45;;;16.95;;
70247;SDS011;57641;51.416;5.506;2022-12-05T08:46:22;33.13;;;15.10;;
70247;SDS011;57641;51.416;5.506;2022-12-05T08:48:48;42.97;;;17.35;;
70247;SDS011;57641;51.416;5.506;2022-12-05T08:51:14;46.45;;;18.50;;
70247;SDS011;57641;51.416;5.506;2022-12-05T08:53:40;38.47;;;16.52;;
70247;SDS011;57641;51.416;5.506;2022-12-05T08:56:07;37.85;;;16.27;;
70247;SDS011;57641;51.416;5.506;2022-12-05T08:58:34;40.92;;;16.88;;
70247;SDS011;57641;51.416;5.506;2022-12-05T09:01:04;34.78;;;15.82;;
70247;SDS011;57641;51.416;5.506;2022-12-05T09:03:31;36.97;;;17.00;;
70247;SDS011;57641;51.416;5.506;2022-12-05T09:06:06;36.30;;;15.07;;
70247;SDS011;57641;51.416;5.506;2022-12-05T09:08:39;39.60;;;16.58;;
70247;SDS011;57641;51.416;5.506;2022-12-05T09:11:10;35.88;;;15.38;;
70247;SDS011;57641;51.416;5.506;2022-12-05T09:13:37;33.83;;;15.35;;
70247;SDS011;57641;51.416;5.506;2022-12-05T09:16:13;35.65;;;15.20;;
70247;SDS011;57641;51.416;5.506;2022-12-05T09:18:41;37.70;;;15.45;;
70247;SDS011;57641;51.416;5.506;2022-12-05T09:21:08;28.85;;;14.23;;
70247;SDS011;57641;51.416;5.506;2022-12-05T09:23:42;33.88;;;14.80;;
70247;SDS011;57641;51.416;5.506;2022-12-05T09:26:10;38.05;;;16.48;;
70247;SDS011;57641;51.416;5.506;2022-12-05T09:28:39;28.35;;;13.45;;
70247;SDS011;57641;51.416;5.506;2022-12-05T09:31:06;35.80;;;15.80;;
70247;SDS011;57641;51.416;5.506;2022-12-05T09:33:35;33.33;;;15.13;;
70247;SDS011;57641;51.416;5.506;2022-12-05T09:36:06;38.42;;;16.08;;
70247;SDS011;57641;51.416;5.506;2022-12-05T09:38:42;34.92;;;17.48;;
70247;SDS011;57641;51.416;5.506;2022-12-05T09:46:28;32.35;;;15.95;;
70247;SDS011;57641;51.416;5.506;2022-12-05T09:49:19;37.97;;;14.73;;
70247;SDS011;57641;51.416;5.506;2022-12-05T09:51:56;36.45;;;15.75;;
70247;SDS011;57641;51.416;5.506;2022-12-05T09:54:23;40.58;;;16.15;;
70247;SDS011;57641;51.416;5.506;2022-12-05T09:56:50;31.95;;;15.38;;
70247;SDS011;57641;51.416;5.506;2022-12-05T09:59:18;33.10;;;14.85;;
70247;SDS011;57641;51.416;5.506;2022-12-05T10:02:01;33.92;;;15.68;;
70247;SDS011;57641;51.416;5.506;2022-12-05T10:15:50;33.80;;;15.80;;
70247;SDS011;57641;51.416;5.506;2022-12-05T10:21:32;31.05;;;13.75;;
70247;SDS011;57641;51.416;5.506;2022-12-05T10:24:10;31.27;;;14.88;;
70247;SDS011;57641;51.416;5.506;2022-12-05T10:26:42;37.50;;;15.80;;
70247;SDS011;57641;51.416;5.506;2022-12-05T10:29:13;33.83;;;15.05;;
70247;SDS011;57641;51.416;5.506;2022-12-05T10:31:53;28.98;;;13.35;;
70247;SDS011;57641;51.416;5.506;2022-12-05T10:34:30;30.08;;;14.05;;
70247;SDS011;57641;51.416;5.506;2022-12-05T10:37:15;28.75;;;13.05;;
70247;SDS011;57641;51.416;5.506;2022-12-05T10:39:40;29.08;;;14.57;;
70247;SDS011;57641;51.416;5.506;2022-12-05T10:42:10;24.35;;;12.40;;
70247;SDS011;57641;51.416;5.506;2022-12-05T10:44:39;24.58;;;12.77;;
70247;SDS011;57641;51.416;5.506;2022-12-05T10:47:06;25.60;;;12.30;;
70247;SDS011;57641;51.416;5.506;2022-12-05T10:49:33;29.95;;;13.80;;
70247;SDS011;57641;51.416;5.506;2022-12-05T10:51:58;24.27;;;12.77;;
70247;SDS011;57641;51.416;5.506;2022-12-05T10:54:27;23.40;;;11.88;;
70247;SDS011;57641;51.416;5.506;2022-12-05T10:57:01;22.88;;;11.73;;
70247;SDS011;57641;51.416;5.506;2022-12-05T10:59:46;24.20;;;11.68;;
70247;SDS011;57641;51.416;5.506;2022-12-05T11:02:31;19.73;;;11.20;;
70247;SDS011;57641;51.416;5.506;2022-12-05T11:04:57;21.58;;;11.52;;
70247;SDS011;57641;51.416;5.506;2022-12-05T11:10:32;22.20;;;10.25;;
70247;SDS011;57641;51.416;5.506;2022-12-05T11:13:03;17.40;;;9.70;;
70247;SDS011;57641;51.416;5.506;2022-12-05T11:15:44;18.10;;;9.80;;
70247;SDS011;57641;51.416;5.506;2022-12-05T11:21:07;15.07;;;8.95;;
70247;SDS011;57641;51.416;5.506;2022-12-05T11:23:34;18.67;;;10.05;;
70247;SDS011;57641;51.416;5.506;2022-12-05T11:26:00;16.98;;;9.73;;
70247;SDS011;57641;51.416;5.506;2022-12-05T11:28:35;21.55;;;11.32;;
70247;SDS011;57641;51.416;5.506;2022-12-05T11:33:44;21.10;;;10.43;;
70247;SDS011;57641;51.416;5.506;2022-12-05T11:36:45;21.38;;;10.18;;
70247;SDS011;57641;51.416;5.506;2022-12-05T11:39:15;23.10;;;11.52;;
70247;SDS011;57641;51.416;5.506;2022-12-05T11:42:02;17.00;;;9.38;;
70247;SDS011;57641;51.416;5.506;2022-12-05T11:44:40;17.08;;;9.45;;
70247;SDS011;57641;51.416;5.506;2022-12-05T11:58:21;16.33;;;9.00;;
70247;SDS011;57641;51.416;5.506;2022-12-05T12:01:31;20.40;;;10.48;;
70247;SDS011;57641;51.416;5.506;2022-12-05T12:06:58;19.13;;;10.25;;
70247;SDS011;57641;51.416;5.506;2022-12-05T12:12:40;19.00;;;10.55;;
70247;SDS011;57641;51.416;5.506;2022-12-05T12:24:33;18.15;;;10.02;;
70247;SDS011;57641;51.416;5.506;2022-12-05T12:30:21;21.10;;;11.15;;
70247;SDS011;57641;51.416;5.506;2022-12-05T12:35:40;17.48;;;9.82;;
70247;SDS011;57641;51.416;5.506;2022-12-05T12:47:03;15.20;;;8.93;;
70247;SDS011;57641;51.416;5.506;2022-12-05T12:52:13;15.52;;;8.63;;
70247;SDS011;57641;51.416;5.506;2022-12-05T13:02:53;13.68;;;8.23;;
70247;SDS011;57641;51.416;5.506;2022-12-05T13:05:32;14.60;;;7.95;;
70247;SDS011;57641;51.416;5.506;2022-12-05T13:08:10;14.32;;;8.32;;
70247;SDS011;57641;51.416;5.506;2022-12-05T13:10:51;14.35;;;7.75;;
70247;SDS011;57641;51.416;5.506;2022-12-05T13:13:24;12.95;;;7.57;;
70247;SDS011;57641;51.416;5.506;2022-12-05T13:15:58;20.77;;;8.50;;
70247;SDS011;57641;51.416;5.506;2022-12-05T13:18:30;15.25;;;8.10;;
70247;SDS011;57641;51.416;5.506;2022-12-05T13:20:57;16.75;;;8.68;;
70247;SDS011;57641;51.416;5.506;2022-12-05T13:23:29;14.52;;;7.68;;
70247;SDS011;57641;51.416;5.506;2022-12-05T13:26:06;12.90;;;7.35;;
70247;SDS011;57641;51.416;5.506;2022-12-05T13:28:34;13.32;;;7.72;;
70247;SDS011;57641;51.416;5.506;2022-12-05T13:31:06;15.25;;;7.95;;
70247;SDS011;57641;51.416;5.506;2022-12-05T13:36:10;16.58;;;8.77;;
70247;SDS011;57641;51.416;5.506;2022-12-05T13:42:21;15.35;;;8.45;;
70247;SDS011;57641;51.416;5.506;2022-12-05T13:45:15;18.40;;;9.73;;
70247;SDS011;57641;51.416;5.506;2022-12-05T13:52:54;18.02;;;10.07;;
70247;SDS011;57641;51.416;5.506;2022-12-05T13:55:28;19.77;;;10.38;;
70247;SDS011;57641;51.416;5.506;2022-12-05T13:58:02;22.13;;;10.48;;
70247;SDS011;57641;51.416;5.506;2022-12-05T14:00:50;17.20;;;9.18;;
70247;SDS011;57641;51.416;5.506;2022-12-05T14:03:59;15.18;;;8.00;;
70247;SDS011;57641;51.416;5.506;2022-12-05T14:20:16;12.80;;;6.78;;
70247;SDS011;57641;51.416;5.506;2022-12-05T14:28:37;9.90;;;6.15;;
70247;SDS011;57641;51.416;5.506;2022-12-05T14:31:19;13.55;;;7.65;;
70247;SDS011;57641;51.416;5.506;2022-12-05T14:36:59;12.75;;;6.53;;
70247;SDS011;57641;51.416;5.506;2022-12-05T14:39:36;12.82;;;8.02;;
70247;SDS011;57641;51.416;5.506;2022-12-05T14:42:37;15.85;;;8.30;;
70247;SDS011;57641;51.416;5.506;2022-12-05T14:46:18;14.40;;;7.50;;
70247;SDS011;57641;51.416;5.506;2022-12-05T14:48:31;16.60;;;8.52;;
70247;SDS011;57641;51.416;5.506;2022-12-05T14:54:03;15.43;;;7.57;;
70247;SDS011;57641;51.416;5.506;2022-12-05T14:56:39;14.75;;;8.23;;
70247;SDS011;57641;51.416;5.506;2022-12-05T14:59:20;14.30;;;7.82;;
70247;SDS011;57641;51.416;5.506;2022-12-05T15:01:50;17.58;;;8.85;;
70247;SDS011;57641;51.416;5.506;2022-12-05T15:04:22;14.07;;;7.68;;
70247;SDS011;57641;51.416;5.506;2022-12-05T15:07:02;12.63;;;7.15;;
70247;SDS011;57641;51.416;5.506;2022-12-05T15:09:42;16.08;;;8.82;;
70247;SDS011;57641;51.416;5.506;2022-12-05T15:12:17;15.57;;;8.10;;
70247;SDS011;57641;51.416;5.506;2022-12-05T15:15:12;17.92;;;8.98;;
70247;SDS011;57641;51.416;5.506;2022-12-05T15:17:44;15.27;;;8.55;;
70247;SDS011;57641;51.416;5.506;2022-12-05T15:20:56;18.02;;;9.00;;
70247;SDS011;57641;51.416;5.506;2022-12-05T15:26:18;19.88;;;9.70;;
70247;SDS011;57641;51.416;5.506;2022-12-05T15:31:50;19.02;;;9.60;;
70247;SDS011;57641;51.416;5.506;2022-12-05T15:40:10;24.13;;;12.10;;
70247;SDS011;57641;51.416;5.506;2022-12-05T15:42:42;22.38;;;10.73;;
70247;SDS011;57641;51.416;5.506;2022-12-05T15:47:35;18.08;;;9.45;;
70247;SDS011;57641;51.416;5.506;2022-12-05T15:50:02;14.75;;;7.75;;
70247;SDS011;57641;51.416;5.506;2022-12-05T15:52:33;17.73;;;9.40;;
70247;SDS011;57641;51.416;5.506;2022-12-05T15:55:11;17.92;;;9.43;;
70247;SDS011;57641;51.416;5.506;2022-12-05T15:57:41;23.48;;;10.25;;
70247;SDS011;57641;51.416;5.506;2022-12-05T16:00:16;16.70;;;9.85;;
70247;SDS011;57641;51.416;5.506;2022-12-05T16:02:45;20.30;;;10.55;;
70247;SDS011;57641;51.416;5.506;2022-12-05T16:07:43;21.98;;;11.75;;
70247;SDS011;57641;51.416;5.506;2022-12-05T16:10:12;19.27;;;10.85;;
70247;SDS011;57641;51.416;5.506;2022-12-05T16:12:52;19.02;;;9.82;;
70247;SDS011;57641;51.416;5.506;2022-12-05T16:15:25;19.17;;;10.07;;
70247;SDS011;57641;51.416;5.506;2022-12-05T16:17:54;21.45;;;10.65;;
70247;SDS011;57641;51.416;5.506;2022-12-05T16:20:32;20.48;;;10.75;;
70247;SDS011;57641;51.416;5.506;2022-12-05T16:23:04;18.75;;;10.15;;
70247;SDS011;57641;51.416;5.506;2022-12-05T16:25:46;16.73;;;8.98;;
70247;SDS011;57641;51.416;5.506;2022-12-05T16:28:14;24.67;;;11.88;;
70247;SDS011;57641;51.416;5.506;2022-12-05T16:30:52;17.70;;;9.63;;
70247;SDS011;57641;51.416;5.506;2022-12-05T16:33:24;24.00;;;12.40;;
70247;SDS011;57641;51.416;5.506;2022-12-05T16:35:51;20.63;;;12.05;;
70247;SDS011;57641;51.416;5.506;2022-12-05T16:38:27;24.25;;;12.77;;
70247;SDS011;57641;51.416;5.506;2022-12-05T16:41:00;21.00;;;11.40;;
70247;SDS011;57641;51.416;5.506;2022-12-05T16:48:39;22.75;;;11.45;;
70247;SDS011;57641;51.416;5.506;2022-12-05T16:53:37;22.17;;;11.43;;
70247;SDS011;57641;51.416;5.506;2022-12-05T16:58:54;20.85;;;11.13;;
70247;SDS011;57641;51.416;5.506;2022-12-05T17:01:22;22.45;;;11.65;;
70247;SDS011;57641;51.416;5.506;2022-12-05T17:03:51;25.70;;;12.52;;
70247;SDS011;57641;51.416;5.506;2022-12-05T17:06:17;24.77;;;11.95;;
70247;SDS011;57641;51.416;5.506;2022-12-05T17:08:45;26.38;;;13.07;;
70247;SDS011;57641;51.416;5.506;2022-12-05T17:13:58;27.33;;;13.05;;
70247;SDS011;57641;51.416;5.506;2022-12-05T17:16:24;25.30;;;13.65;;
70247;SDS011;57641;51.416;5.506;2022-12-05T17:18:53;25.75;;;14.68;;
70247;SDS011;57641;51.416;5.506;2022-12-05T17:21:21;24.80;;;13.07;;
70247;SDS011;57641;51.416;5.506;2022-12-05T17:23:53;25.73;;;13.20;;
70247;SDS011;57641;51.416;5.506;2022-12-05T17:26:19;27.95;;;14.40;;
70247;SDS011;57641;51.416;5.506;2022-12-05T17:28:46;27.38;;;13.27;;
70247;SDS011;57641;51.416;5.506;2022-12-05T17:31:14;25.15;;;12.55;;
70247;SDS011;57641;51.416;5.506;2022-12-05T17:33:44;26.92;;;12.90;;
70247;SDS011;57641;51.416;5.506;2022-12-05T17:36:11;24.15;;;12.00;;
70247;SDS011;57641;51.416;5.506;2022-12-05T17:38:39;27.73;;;12.38;;
70247;SDS011;57641;51.416;5.506;2022-12-05T17:41:05;26.50;;;13.15;;
70247;SDS011;57641;51.416;5.506;2022-12-05T17:43:31;23.40;;;12.13;;
70247;SDS011;57641;51.416;5.506;2022-12-05T17:45:58;29.30;;;13.55;;
70247;SDS011;57641;51.416;5.506;2022-12-05T17:48:25;27.95;;;13.60;;
70247;SDS011;57641;51.416;5.506;2022-12-05T17:50:50;27.38;;;14.60;;
70247;SDS011;57641;51.416;5.506;2022-12-05T17:53:17;36.78;;;16.88;;
70247;SDS011;57641;51.416;5.506;2022-12-05T17:55:45;28.77;;;14.32;;
70247;SDS011;57641;51.416;5.506;2022-12-05T17:58:14;34.35;;;18.60;;
70247;SDS011;57641;51.416;5.506;2022-12-05T18:00:44;33.97;;;18.58;;
70247;SDS011;57641;51.416;5.506;2022-12-05T18:03:15;29.75;;;14.50;;